Terminal Aerodrome Forecast
Issued by NWS Duluth, MN

Home | Current Version | Previous Version | Text Only | Print | Product List | Glossary On
Versions: 1 2 3 4 5 6 7 8 9 10 11 12 13 14 15 16
012
FTUS43 KDLH 252037 AAB
TAFDLH
TAF AMD
KDLH 252037Z 2521/2618 25012G18KT P6SM VCTS SCT050CB
      TEMPO 2521/2523 3SM -TSRA BKN045CB OVC080
     FM260200 25004KT P6SM SCT090=

USA.gov is the U.S. government's official web portal to all federal, state and local government web resources and services.